sensor_id;sensor_type;location;lat;lon;timestamp;P1;durP1;ratioP1;P2;durP2;ratioP2
18280;SDS011;9266;51.132;17.062;2024-03-29T00:01:49;5.17;;;4.30;;
18280;SDS011;9266;51.132;17.062;2024-03-29T00:04:15;4.80;;;4.00;;
18280;SDS011;9266;51.132;17.062;2024-03-29T00:06:43;7.13;;;4.43;;
18280;SDS011;9266;51.132;17.062;2024-03-29T00:09:09;6.23;;;4.17;;
18280;SDS011;9266;51.132;17.062;2024-03-29T00:11:35;6.10;;;4.80;;
18280;SDS011;9266;51.132;17.062;2024-03-29T00:14:01;4.67;;;4.00;;
18280;SDS011;9266;51.132;17.062;2024-03-29T00:16:27;6.73;;;4.37;;
18280;SDS011;9266;51.132;17.062;2024-03-29T00:19:11;5.87;;;4.83;;
18280;SDS011;9266;51.132;17.062;2024-03-29T00:21:38;4.63;;;3.93;;
18280;SDS011;9266;51.132;17.062;2024-03-29T00:24:05;7.03;;;4.80;;
18280;SDS011;9266;51.132;17.062;2024-03-29T00:26:32;4.80;;;4.23;;
18280;SDS011;9266;51.132;17.062;2024-03-29T00:28:58;5.30;;;4.13;;
18280;SDS011;9266;51.132;17.062;2024-03-29T00:31:24;5.00;;;4.50;;
18280;SDS011;9266;51.132;17.062;2024-03-29T00:33:50;5.47;;;4.30;;
18280;SDS011;9266;51.132;17.062;2024-03-29T00:36:16;6.57;;;4.47;;
18280;SDS011;9266;51.132;17.062;2024-03-29T00:38:42;7.20;;;4.27;;
18280;SDS011;9266;51.132;17.062;2024-03-29T00:41:29;4.67;;;4.27;;
18280;SDS011;9266;51.132;17.062;2024-03-29T00:43:55;5.50;;;4.03;;
18280;SDS011;9266;51.132;17.062;2024-03-29T00:46:21;4.20;;;3.77;;
18280;SDS011;9266;51.132;17.062;2024-03-29T00:48:47;4.83;;;3.97;;
18280;SDS011;9266;51.132;17.062;2024-03-29T00:51:14;4.80;;;4.30;;
18280;SDS011;9266;51.132;17.062;2024-03-29T00:53:40;4.87;;;4.17;;
18280;SDS011;9266;51.132;17.062;2024-03-29T00:56:06;4.40;;;4.00;;
18280;SDS011;9266;51.132;17.062;2024-03-29T00:58:34;4.20;;;3.90;;
18280;SDS011;9266;51.132;17.062;2024-03-29T01:01:00;5.33;;;4.13;;
18280;SDS011;9266;51.132;17.062;2024-03-29T01:03:26;4.63;;;4.00;;
18280;SDS011;9266;51.132;17.062;2024-03-29T01:05:52;5.37;;;4.40;;
18280;SDS011;9266;51.132;17.062;2024-03-29T01:08:19;4.63;;;4.23;;
18280;SDS011;9266;51.132;17.062;2024-03-29T01:10:45;4.50;;;4.10;;
18280;SDS011;9266;51.132;17.062;2024-03-29T01:13:11;4.83;;;4.10;;
18280;SDS011;9266;51.132;17.062;2024-03-29T01:15:39;5.13;;;4.10;;
18280;SDS011;9266;51.132;17.062;2024-03-29T01:18:05;4.90;;;4.00;;
18280;SDS011;9266;51.132;17.062;2024-03-29T01:20:31;4.70;;;4.30;;
18280;SDS011;9266;51.132;17.062;2024-03-29T01:22:57;4.30;;;3.90;;
18280;SDS011;9266;51.132;17.062;2024-03-29T01:25:23;4.83;;;4.33;;
18280;SDS011;9266;51.132;17.062;2024-03-29T01:27:50;5.60;;;4.10;;
18280;SDS011;9266;51.132;17.062;2024-03-29T01:30:16;4.97;;;4.43;;
18280;SDS011;9266;51.132;17.062;2024-03-29T01:32:44;5.73;;;4.30;;
18280;SDS011;9266;51.132;17.062;2024-03-29T01:35:10;4.30;;;4.00;;
18280;SDS011;9266;51.132;17.062;2024-03-29T01:37:55;4.90;;;4.50;;
18280;SDS011;9266;51.132;17.062;2024-03-29T01:40:21;5.00;;;4.60;;
18280;SDS011;9266;51.132;17.062;2024-03-29T01:42:47;4.80;;;4.30;;
18280;SDS011;9266;51.132;17.062;2024-03-29T01:45:14;5.17;;;4.47;;
18280;SDS011;9266;51.132;17.062;2024-03-29T01:47:41;7.07;;;4.43;;
18280;SDS011;9266;51.132;17.062;2024-03-29T01:50:10;4.93;;;4.33;;
18280;SDS011;9266;51.132;17.062;2024-03-29T01:52:37;5.70;;;4.60;;
18280;SDS011;9266;51.132;17.062;2024-03-29T01:55:22;5.00;;;4.60;;
18280;SDS011;9266;51.132;17.062;2024-03-29T01:57:50;4.70;;;4.30;;
18280;SDS011;9266;51.132;17.062;2024-03-29T02:00:18;4.83;;;4.43;;
18280;SDS011;9266;51.132;17.062;2024-03-29T02:02:46;4.63;;;4.23;;
18280;SDS011;9266;51.132;17.062;2024-03-29T02:05:15;4.87;;;4.37;;
18280;SDS011;9266;51.132;17.062;2024-03-29T02:07:42;4.80;;;4.40;;
18280;SDS011;9266;51.132;17.062;2024-03-29T02:10:11;4.73;;;4.33;;
18280;SDS011;9266;51.132;17.062;2024-03-29T02:12:39;5.20;;;4.60;;
18280;SDS011;9266;51.132;17.062;2024-03-29T02:15:05;4.90;;;4.50;;
18280;SDS011;9266;51.132;17.062;2024-03-29T02:17:32;6.63;;;4.77;;
18280;SDS011;9266;51.132;17.062;2024-03-29T02:19:59;5.20;;;4.40;;
18280;SDS011;9266;51.132;17.062;2024-03-29T02:22:46;5.70;;;4.40;;
18280;SDS011;9266;51.132;17.062;2024-03-29T02:25:19;4.80;;;4.30;;
18280;SDS011;9266;51.132;17.062;2024-03-29T02:30:32;4.97;;;4.30;;
18280;SDS011;9266;51.132;17.062;2024-03-29T02:33:00;4.83;;;4.33;;
18280;SDS011;9266;51.132;17.062;2024-03-29T02:35:28;4.70;;;4.30;;
18280;SDS011;9266;51.132;17.062;2024-03-29T02:37:56;4.80;;;4.20;;
18280;SDS011;9266;51.132;17.062;2024-03-29T02:40:24;6.13;;;4.30;;
18280;SDS011;9266;51.132;17.062;2024-03-29T02:42:52;4.20;;;3.80;;
18280;SDS011;9266;51.132;17.062;2024-03-29T02:45:19;4.50;;;4.00;;
18280;SDS011;9266;51.132;17.062;2024-03-29T02:48:04;4.70;;;4.30;;
18280;SDS011;9266;51.132;17.062;2024-03-29T02:50:31;4.83;;;4.43;;
18280;SDS011;9266;51.132;17.062;2024-03-29T02:55:45;4.73;;;4.33;;
18280;SDS011;9266;51.132;17.062;2024-03-29T02:58:11;4.40;;;4.00;;
18280;SDS011;9266;51.132;17.062;2024-03-29T03:00:38;4.73;;;4.23;;
18280;SDS011;9266;51.132;17.062;2024-03-29T03:03:04;4.50;;;4.10;;
18280;SDS011;9266;51.132;17.062;2024-03-29T03:05:31;4.43;;;4.03;;
18280;SDS011;9266;51.132;17.062;2024-03-29T03:07:58;4.27;;;3.87;;
18280;SDS011;9266;51.132;17.062;2024-03-29T03:10:47;4.40;;;4.07;;
18280;SDS011;9266;51.132;17.062;2024-03-29T03:13:26;4.93;;;4.37;;
18280;SDS011;9266;51.132;17.062;2024-03-29T03:15:54;4.70;;;4.30;;
18280;SDS011;9266;51.132;17.062;2024-03-29T03:18:21;4.57;;;4.00;;
18280;SDS011;9266;51.132;17.062;2024-03-29T03:20:51;4.73;;;4.23;;
18280;SDS011;9266;51.132;17.062;2024-03-29T03:23:18;5.27;;;4.60;;
18280;SDS011;9266;51.132;17.062;2024-03-29T03:25:52;5.23;;;4.73;;
18280;SDS011;9266;51.132;17.062;2024-03-29T03:28:19;4.47;;;4.07;;
18280;SDS011;9266;51.132;17.062;2024-03-29T03:30:46;4.87;;;4.47;;
18280;SDS011;9266;51.132;17.062;2024-03-29T03:33:13;5.00;;;4.50;;
18280;SDS011;9266;51.132;17.062;2024-03-29T03:35:40;6.50;;;4.73;;
18280;SDS011;9266;51.132;17.062;2024-03-29T03:38:07;4.80;;;4.40;;
18280;SDS011;9266;51.132;17.062;2024-03-29T03:40:34;6.73;;;4.07;;
18280;SDS011;9266;51.132;17.062;2024-03-29T03:43:02;6.83;;;4.37;;
18280;SDS011;9266;51.132;17.062;2024-03-29T03:45:33;5.57;;;4.17;;
18280;SDS011;9266;51.132;17.062;2024-03-29T03:47:59;4.83;;;4.40;;
18280;SDS011;9266;51.132;17.062;2024-03-29T03:50:27;5.17;;;4.47;;
18280;SDS011;9266;51.132;17.062;2024-03-29T03:52:53;5.37;;;4.63;;
18280;SDS011;9266;51.132;17.062;2024-03-29T03:55:20;4.70;;;4.30;;
18280;SDS011;9266;51.132;17.062;2024-03-29T03:57:46;4.83;;;4.27;;
18280;SDS011;9266;51.132;17.062;2024-03-29T04:00:15;6.20;;;4.90;;
18280;SDS011;9266;51.132;17.062;2024-03-29T04:02:46;6.13;;;4.43;;
18280;SDS011;9266;51.132;17.062;2024-03-29T04:05:13;5.57;;;4.60;;
18280;SDS011;9266;51.132;17.062;2024-03-29T04:07:39;5.20;;;4.30;;
18280;SDS011;9266;51.132;17.062;2024-03-29T04:10:07;5.57;;;4.57;;
18280;SDS011;9266;51.132;17.062;2024-03-29T04:12:33;4.33;;;3.93;;
18280;SDS011;9266;51.132;17.062;2024-03-29T04:15:00;4.93;;;4.37;;
18280;SDS011;9266;51.132;17.062;2024-03-29T04:17:29;8.70;;;4.57;;
18280;SDS011;9266;51.132;17.062;2024-03-29T04:19:56;4.27;;;3.87;;
18280;SDS011;9266;51.132;17.062;2024-03-29T04:22:23;5.40;;;4.50;;
18280;SDS011;9266;51.132;17.062;2024-03-29T04:24:50;4.43;;;4.00;;
18280;SDS011;9266;51.132;17.062;2024-03-29T04:27:16;4.87;;;3.90;;
18280;SDS011;9266;51.132;17.062;2024-03-29T04:29:44;4.53;;;3.90;;
18280;SDS011;9266;51.132;17.062;2024-03-29T04:32:10;7.47;;;4.40;;
18280;SDS011;9266;51.132;17.062;2024-03-29T04:34:39;6.30;;;3.97;;
18280;SDS011;9266;51.132;17.062;2024-03-29T04:37:04;5.73;;;3.73;;
18280;SDS011;9266;51.132;17.062;2024-03-29T04:39:32;4.30;;;3.60;;
18280;SDS011;9266;51.132;17.062;2024-03-29T04:41:59;5.70;;;4.33;;
18280;SDS011;9266;51.132;17.062;2024-03-29T04:44:27;4.90;;;3.80;;
18280;SDS011;9266;51.132;17.062;2024-03-29T04:49:59;4.73;;;4.00;;
18280;SDS011;9266;51.132;17.062;2024-03-29T04:52:27;5.03;;;3.60;;
18280;SDS011;9266;51.132;17.062;2024-03-29T04:54:54;4.60;;;3.50;;
18280;SDS011;9266;51.132;17.062;2024-03-29T05:00:07;4.70;;;4.03;;
18280;SDS011;9266;51.132;17.062;2024-03-29T05:02:35;5.57;;;4.00;;
18280;SDS011;9266;51.132;17.062;2024-03-29T05:05:04;4.23;;;3.53;;
18280;SDS011;9266;51.132;17.062;2024-03-29T05:07:31;4.57;;;3.67;;
18280;SDS011;9266;51.132;17.062;2024-03-29T05:09:58;9.33;;;4.67;;
18280;SDS011;9266;51.132;17.062;2024-03-29T05:12:26;6.83;;;3.70;;
18280;SDS011;9266;51.132;17.062;2024-03-29T05:14:53;4.53;;;3.60;;
18280;SDS011;9266;51.132;17.062;2024-03-29T05:17:20;4.73;;;3.67;;
18280;SDS011;9266;51.132;17.062;2024-03-29T05:19:50;6.30;;;3.70;;
18280;SDS011;9266;51.132;17.062;2024-03-29T05:22:19;5.43;;;3.27;;
18280;SDS011;9266;51.132;17.062;2024-03-29T05:24:46;6.40;;;3.67;;
18280;SDS011;9266;51.132;17.062;2024-03-29T05:27:13;5.43;;;3.20;;
18280;SDS011;9266;51.132;17.062;2024-03-29T05:29:41;4.43;;;3.80;;
18280;SDS011;9266;51.132;17.062;2024-03-29T05:32:08;4.80;;;3.23;;
18280;SDS011;9266;51.132;17.062;2024-03-29T05:34:35;7.77;;;3.43;;
18280;SDS011;9266;51.132;17.062;2024-03-29T05:37:02;5.43;;;3.33;;
18280;SDS011;9266;51.132;17.062;2024-03-29T05:39:31;8.37;;;4.20;;
18280;SDS011;9266;51.132;17.062;2024-03-29T05:41:58;5.60;;;3.47;;
18280;SDS011;9266;51.132;17.062;2024-03-29T05:44:26;6.07;;;2.97;;
18280;SDS011;9266;51.132;17.062;2024-03-29T05:46:53;3.73;;;2.47;;
18280;SDS011;9266;51.132;17.062;2024-03-29T05:49:20;4.97;;;3.30;;
18280;SDS011;9266;51.132;17.062;2024-03-29T05:51:48;10.80;;;3.53;;
18280;SDS011;9266;51.132;17.062;2024-03-29T05:54:15;4.00;;;2.50;;
18280;SDS011;9266;51.132;17.062;2024-03-29T05:56:44;6.57;;;2.43;;
18280;SDS011;9266;51.132;17.062;2024-03-29T05:59:11;3.37;;;2.27;;
18280;SDS011;9266;51.132;17.062;2024-03-29T06:01:56;3.77;;;2.60;;
18280;SDS011;9266;51.132;17.062;2024-03-29T06:04:23;5.63;;;2.70;;
18280;SDS011;9266;51.132;17.062;2024-03-29T06:06:57;6.23;;;3.60;;
18280;SDS011;9266;51.132;17.062;2024-03-29T06:09:24;7.27;;;3.20;;
18280;SDS011;9266;51.132;17.062;2024-03-29T06:11:53;2.97;;;2.47;;
18280;SDS011;9266;51.132;17.062;2024-03-29T06:14:21;3.30;;;2.47;;
18280;SDS011;9266;51.132;17.062;2024-03-29T06:17:08;4.37;;;2.43;;
18280;SDS011;9266;51.132;17.062;2024-03-29T06:19:50;3.57;;;2.20;;
18280;SDS011;9266;51.132;17.062;2024-03-29T06:22:20;3.80;;;2.40;;
18280;SDS011;9266;51.132;17.062;2024-03-29T06:24:48;4.90;;;2.30;;
18280;SDS011;9266;51.132;17.062;2024-03-29T06:27:18;4.77;;;2.30;;
18280;SDS011;9266;51.132;17.062;2024-03-29T06:29:47;3.10;;;2.17;;
18280;SDS011;9266;51.132;17.062;2024-03-29T06:32:15;7.67;;;2.90;;
18280;SDS011;9266;51.132;17.062;2024-03-29T06:34:43;5.40;;;2.50;;
18280;SDS011;9266;51.132;17.062;2024-03-29T06:37:10;7.60;;;2.80;;
18280;SDS011;9266;51.132;17.062;2024-03-29T06:39:37;5.77;;;2.30;;
18280;SDS011;9266;51.132;17.062;2024-03-29T06:42:05;5.87;;;3.40;;
18280;SDS011;9266;51.132;17.062;2024-03-29T06:44:35;4.73;;;2.40;;
18280;SDS011;9266;51.132;17.062;2024-03-29T06:47:02;5.23;;;3.10;;
18280;SDS011;9266;51.132;17.062;2024-03-29T06:49:30;3.77;;;2.27;;
18280;SDS011;9266;51.132;17.062;2024-03-29T06:52:15;5.00;;;2.10;;
18280;SDS011;9266;51.132;17.062;2024-03-29T06:54:42;4.47;;;1.77;;
18280;SDS011;9266;51.132;17.062;2024-03-29T06:57:09;4.60;;;2.27;;
18280;SDS011;9266;51.132;17.062;2024-03-29T06:59:41;4.13;;;2.03;;
18280;SDS011;9266;51.132;17.062;2024-03-29T07:02:08;4.30;;;2.00;;
18280;SDS011;9266;51.132;17.062;2024-03-29T07:04:36;2.83;;;2.00;;
18280;SDS011;9266;51.132;17.062;2024-03-29T07:07:03;5.47;;;2.20;;
18280;SDS011;9266;51.132;17.062;2024-03-29T07:09:30;5.33;;;2.33;;
18280;SDS011;9266;51.132;17.062;2024-03-29T07:11:57;4.03;;;1.97;;
18280;SDS011;9266;51.132;17.062;2024-03-29T07:14:25;3.30;;;2.03;;
18280;SDS011;9266;51.132;17.062;2024-03-29T07:16:54;3.83;;;2.30;;
18280;SDS011;9266;51.132;17.062;2024-03-29T07:19:22;3.07;;;2.00;;
18280;SDS011;9266;51.132;17.062;2024-03-29T07:21:49;4.13;;;2.20;;
18280;SDS011;9266;51.132;17.062;2024-03-29T07:24:18;4.03;;;2.10;;
18280;SDS011;9266;51.132;17.062;2024-03-29T07:26:46;4.23;;;2.40;;
18280;SDS011;9266;51.132;17.062;2024-03-29T07:29:13;3.83;;;2.33;;
18280;SDS011;9266;51.132;17.062;2024-03-29T07:31:40;3.20;;;2.37;;
18280;SDS011;9266;51.132;17.062;2024-03-29T07:34:09;3.00;;;2.33;;
18280;SDS011;9266;51.132;17.062;2024-03-29T07:36:36;5.97;;;2.23;;
18280;SDS011;9266;51.132;17.062;2024-03-29T07:39:05;9.33;;;2.40;;
18280;SDS011;9266;51.132;17.062;2024-03-29T07:41:33;3.80;;;2.23;;
18280;SDS011;9266;51.132;17.062;2024-03-29T07:44:00;8.67;;;2.60;;
18280;SDS011;9266;51.132;17.062;2024-03-29T07:46:29;4.93;;;2.43;;
18280;SDS011;9266;51.132;17.062;2024-03-29T07:48:58;3.70;;;1.83;;
18280;SDS011;9266;51.132;17.062;2024-03-29T07:51:27;7.00;;;2.07;;
18280;SDS011;9266;51.132;17.062;2024-03-29T07:53:54;6.57;;;2.13;;
18280;SDS011;9266;51.132;17.062;2024-03-29T07:56:21;3.37;;;1.93;;
18280;SDS011;9266;51.132;17.062;2024-03-29T07:58:50;5.40;;;2.20;;
18280;SDS011;9266;51.132;17.062;2024-03-29T08:01:18;2.80;;;1.90;;
18280;SDS011;9266;51.132;17.062;2024-03-29T08:03:45;3.47;;;1.67;;
18280;SDS011;9266;51.132;17.062;2024-03-29T08:06:12;3.70;;;1.90;;
18280;SDS011;9266;51.132;17.062;2024-03-29T08:08:43;5.43;;;2.20;;
18280;SDS011;9266;51.132;17.062;2024-03-29T08:11:28;5.03;;;2.00;;
18280;SDS011;9266;51.132;17.062;2024-03-29T08:13:55;2.90;;;1.60;;
18280;SDS011;9266;51.132;17.062;2024-03-29T08:16:22;4.80;;;2.97;;
18280;SDS011;9266;51.132;17.062;2024-03-29T08:19:07;2.33;;;1.67;;
18280;SDS011;9266;51.132;17.062;2024-03-29T08:21:34;3.87;;;1.77;;
18280;SDS011;9266;51.132;17.062;2024-03-29T08:24:03;3.47;;;1.80;;
18280;SDS011;9266;51.132;17.062;2024-03-29T08:26:31;5.87;;;2.00;;
18280;SDS011;9266;51.132;17.062;2024-03-29T08:28:59;3.40;;;1.83;;
18280;SDS011;9266;51.132;17.062;2024-03-29T08:31:26;4.77;;;2.23;;
18280;SDS011;9266;51.132;17.062;2024-03-29T08:34:12;5.10;;;1.90;;
18280;SDS011;9266;51.132;17.062;2024-03-29T08:36:40;4.30;;;2.10;;
18280;SDS011;9266;51.132;17.062;2024-03-29T08:39:08;4.57;;;2.00;;
18280;SDS011;9266;51.132;17.062;2024-03-29T08:41:36;4.13;;;1.63;;
18280;SDS011;9266;51.132;17.062;2024-03-29T08:44:04;4.33;;;2.47;;
18280;SDS011;9266;51.132;17.062;2024-03-29T08:46:31;4.87;;;2.00;;
18280;SDS011;9266;51.132;17.062;2024-03-29T08:48:58;7.60;;;2.60;;
18280;SDS011;9266;51.132;17.062;2024-03-29T08:51:25;4.93;;;1.77;;
18280;SDS011;9266;51.132;17.062;2024-03-29T08:53:53;3.13;;;1.60;;
18280;SDS011;9266;51.132;17.062;2024-03-29T08:56:24;4.80;;;1.97;;
18280;SDS011;9266;51.132;17.062;2024-03-29T08:58:51;5.00;;;2.50;;
18280;SDS011;9266;51.132;17.062;2024-03-29T09:01:18;5.40;;;1.90;;
18280;SDS011;9266;51.132;17.062;2024-03-29T09:03:45;2.50;;;1.60;;
18280;SDS011;9266;51.132;17.062;2024-03-29T09:06:13;2.70;;;1.70;;
18280;SDS011;9266;51.132;17.062;2024-03-29T09:08:41;4.10;;;2.03;;
18280;SDS011;9266;51.132;17.062;2024-03-29T09:11:08;6.40;;;2.67;;
18280;SDS011;9266;51.132;17.062;2024-03-29T09:13:37;4.23;;;2.37;;
18280;SDS011;9266;51.132;17.062;2024-03-29T09:16:22;4.97;;;2.43;;
18280;SDS011;9266;51.132;17.062;2024-03-29T09:19:06;6.07;;;2.03;;
18280;SDS011;9266;51.132;17.062;2024-03-29T09:21:33;4.87;;;2.20;;
18280;SDS011;9266;51.132;17.062;2024-03-29T09:24:18;3.13;;;2.00;;
18280;SDS011;9266;51.132;17.062;2024-03-29T09:26:48;5.63;;;3.17;;
18280;SDS011;9266;51.132;17.062;2024-03-29T09:29:16;5.83;;;2.23;;
18280;SDS011;9266;51.132;17.062;2024-03-29T09:31:45;6.43;;;1.93;;
18280;SDS011;9266;51.132;17.062;2024-03-29T09:34:12;5.10;;;2.20;;
18280;SDS011;9266;51.132;17.062;2024-03-29T09:36:40;5.33;;;1.93;;
18280;SDS011;9266;51.132;17.062;2024-03-29T09:39:07;5.23;;;2.27;;
18280;SDS011;9266;51.132;17.062;2024-03-29T09:41:34;4.07;;;1.57;;
18280;SDS011;9266;51.132;17.062;2024-03-29T09:44:03;4.97;;;1.60;;
18280;SDS011;9266;51.132;17.062;2024-03-29T09:46:34;6.63;;;2.33;;
18280;SDS011;9266;51.132;17.062;2024-03-29T09:49:04;3.70;;;1.83;;
18280;SDS011;9266;51.132;17.062;2024-03-29T09:51:32;3.80;;;1.93;;
18280;SDS011;9266;51.132;17.062;2024-03-29T09:54:01;3.70;;;1.83;;
18280;SDS011;9266;51.132;17.062;2024-03-29T09:56:29;2.07;;;1.67;;
18280;SDS011;9266;51.132;17.062;2024-03-29T09:58:57;3.53;;;1.50;;
18280;SDS011;9266;51.132;17.062;2024-03-29T10:04:14;2.90;;;1.57;;
18280;SDS011;9266;51.132;17.062;2024-03-29T10:06:42;4.13;;;1.60;;
18280;SDS011;9266;51.132;17.062;2024-03-29T10:09:14;4.50;;;1.70;;
18280;SDS011;9266;51.132;17.062;2024-03-29T10:11:41;2.80;;;1.60;;
18280;SDS011;9266;51.132;17.062;2024-03-29T10:14:09;9.33;;;2.50;;
18280;SDS011;9266;51.132;17.062;2024-03-29T10:16:35;6.33;;;1.97;;
18280;SDS011;9266;51.132;17.062;2024-03-29T10:19:04;6.77;;;2.10;;
18280;SDS011;9266;51.132;17.062;2024-03-29T10:21:31;3.60;;;1.80;;
18280;SDS011;9266;51.132;17.062;2024-03-29T10:24:00;4.33;;;2.00;;
18280;SDS011;9266;51.132;17.062;2024-03-29T10:26:28;4.87;;;1.87;;
18280;SDS011;9266;51.132;17.062;2024-03-29T10:28:56;4.93;;;1.83;;
18280;SDS011;9266;51.132;17.062;2024-03-29T10:31:23;5.87;;;1.73;;
18280;SDS011;9266;51.132;17.062;2024-03-29T10:33:50;4.90;;;1.40;;
18280;SDS011;9266;51.132;17.062;2024-03-29T10:36:21;5.43;;;2.37;;
18280;SDS011;9266;51.132;17.062;2024-03-29T10:38:48;3.93;;;1.90;;
18280;SDS011;9266;51.132;17.062;2024-03-29T10:41:15;4.47;;;1.67;;
18280;SDS011;9266;51.132;17.062;2024-03-29T10:43:43;4.47;;;1.73;;
18280;SDS011;9266;51.132;17.062;2024-03-29T10:46:12;7.13;;;1.77;;
18280;SDS011;9266;51.132;17.062;2024-03-29T10:48:42;4.30;;;2.07;;
18280;SDS011;9266;51.132;17.062;2024-03-29T10:51:11;4.77;;;2.10;;
18280;SDS011;9266;51.132;17.062;2024-03-29T10:53:39;4.10;;;1.70;;
18280;SDS011;9266;51.132;17.062;2024-03-29T10:56:07;5.30;;;1.90;;
18280;SDS011;9266;51.132;17.062;2024-03-29T10:58:38;4.00;;;1.70;;
18280;SDS011;9266;51.132;17.062;2024-03-29T11:01:08;3.53;;;2.10;;
18280;SDS011;9266;51.132;17.062;2024-03-29T11:03:38;3.67;;;1.70;;
18280;SDS011;9266;51.132;17.062;2024-03-29T11:06:09;2.83;;;1.90;;
18280;SDS011;9266;51.132;17.062;2024-03-29T11:11:46;3.37;;;1.43;;
18280;SDS011;9266;51.132;17.062;2024-03-29T11:14:18;2.87;;;1.80;;
18280;SDS011;9266;51.132;17.062;2024-03-29T11:16:46;3.97;;;1.53;;
18280;SDS011;9266;51.132;17.062;2024-03-29T11:19:16;3.33;;;1.70;;
18280;SDS011;9266;51.132;17.062;2024-03-29T11:21:43;4.30;;;2.00;;
18280;SDS011;9266;51.132;17.062;2024-03-29T11:24:13;4.07;;;1.80;;
18280;SDS011;9266;51.132;17.062;2024-03-29T11:26:42;4.37;;;1.77;;
18280;SDS011;9266;51.132;17.062;2024-03-29T11:29:17;3.57;;;1.70;;
18280;SDS011;9266;51.132;17.062;2024-03-29T11:31:45;2.20;;;1.43;;
18280;SDS011;9266;51.132;17.062;2024-03-29T11:34:14;3.90;;;1.63;;
18280;SDS011;9266;51.132;17.062;2024-03-29T11:36:41;2.60;;;1.80;;
18280;SDS011;9266;51.132;17.062;2024-03-29T11:39:30;3.97;;;1.73;;
18280;SDS011;9266;51.132;17.062;2024-03-29T11:42:02;3.07;;;1.90;;
18280;SDS011;9266;51.132;17.062;2024-03-29T11:44:29;2.80;;;1.57;;
18280;SDS011;9266;51.132;17.062;2024-03-29T11:46:57;4.17;;;2.20;;
18280;SDS011;9266;51.132;17.062;2024-03-29T11:49:25;3.63;;;1.80;;
18280;SDS011;9266;51.132;17.062;2024-03-29T11:52:01;3.83;;;2.03;;
18280;SDS011;9266;51.132;17.062;2024-03-29T11:54:36;3.20;;;1.80;;
18280;SDS011;9266;51.132;17.062;2024-03-29T11:57:05;3.63;;;1.70;;
18280;SDS011;9266;51.132;17.062;2024-03-29T11:59:32;3.03;;;1.73;;
18280;SDS011;9266;51.132;17.062;2024-03-29T12:01:59;4.67;;;1.40;;
18280;SDS011;9266;51.132;17.062;2024-03-29T12:04:28;3.53;;;1.90;;
18280;SDS011;9266;51.132;17.062;2024-03-29T12:06:55;3.90;;;1.50;;
18280;SDS011;9266;51.132;17.062;2024-03-29T12:09:22;7.00;;;2.10;;
18280;SDS011;9266;51.132;17.062;2024-03-29T12:12:09;4.07;;;2.27;;
18280;SDS011;9266;51.132;17.062;2024-03-29T12:14:53;2.30;;;1.70;;
18280;SDS011;9266;51.132;17.062;2024-03-29T12:17:21;4.03;;;1.60;;
18280;SDS011;9266;51.132;17.062;2024-03-29T12:19:48;3.87;;;1.80;;
18280;SDS011;9266;51.132;17.062;2024-03-29T12:22:20;3.37;;;1.57;;
18280;SDS011;9266;51.132;17.062;2024-03-29T12:24:47;2.87;;;1.83;;
18280;SDS011;9266;51.132;17.062;2024-03-29T12:27:17;3.77;;;2.13;;
18280;SDS011;9266;51.132;17.062;2024-03-29T12:29:44;3.03;;;1.60;;
18280;SDS011;9266;51.132;17.062;2024-03-29T12:32:11;4.20;;;1.93;;
18280;SDS011;9266;51.132;17.062;2024-03-29T12:34:39;6.53;;;2.10;;
18280;SDS011;9266;51.132;17.062;2024-03-29T12:37:07;1.30;;;1.20;;
18280;SDS011;9266;51.132;17.062;2024-03-29T12:39:35;3.73;;;2.20;;
18280;SDS011;9266;51.132;17.062;2024-03-29T12:42:22;1.83;;;1.37;;
18280;SDS011;9266;51.132;17.062;2024-03-29T12:44:49;3.83;;;1.57;;
18280;SDS011;9266;51.132;17.062;2024-03-29T12:50:03;3.27;;;1.90;;
18280;SDS011;9266;51.132;17.062;2024-03-29T12:52:36;4.67;;;1.67;;
18280;SDS011;9266;51.132;17.062;2024-03-29T12:55:03;2.50;;;1.53;;
18280;SDS011;9266;51.132;17.062;2024-03-29T12:57:34;4.77;;;1.80;;
18280;SDS011;9266;51.132;17.062;2024-03-29T13:00:01;2.43;;;1.40;;
18280;SDS011;9266;51.132;17.062;2024-03-29T13:02:33;4.47;;;1.60;;
18280;SDS011;9266;51.132;17.062;2024-03-29T13:05:01;4.37;;;1.80;;
18280;SDS011;9266;51.132;17.062;2024-03-29T13:07:29;5.60;;;2.10;;
18280;SDS011;9266;51.132;17.062;2024-03-29T13:09:56;3.57;;;2.20;;
18280;SDS011;9266;51.132;17.062;2024-03-29T13:12:27;5.43;;;1.80;;
18280;SDS011;9266;51.132;17.062;2024-03-29T13:17:43;2.27;;;1.40;;
18280;SDS011;9266;51.132;17.062;2024-03-29T13:20:11;3.13;;;2.00;;
18280;SDS011;9266;51.132;17.062;2024-03-29T13:22:40;3.90;;;1.80;;
18280;SDS011;9266;51.132;17.062;2024-03-29T13:25:25;4.40;;;2.10;;
18280;SDS011;9266;51.132;17.062;2024-03-29T13:27:53;2.23;;;1.30;;
18280;SDS011;9266;51.132;17.062;2024-03-29T13:30:24;2.20;;;1.30;;
18280;SDS011;9266;51.132;17.062;2024-03-29T13:32:53;4.97;;;2.50;;
18280;SDS011;9266;51.132;17.062;2024-03-29T13:35:20;5.03;;;1.93;;
18280;SDS011;9266;51.132;17.062;2024-03-29T13:37:48;4.27;;;1.90;;
18280;SDS011;9266;51.132;17.062;2024-03-29T13:40:16;3.83;;;1.83;;
18280;SDS011;9266;51.132;17.062;2024-03-29T13:45:48;3.43;;;1.93;;
18280;SDS011;9266;51.132;17.062;2024-03-29T13:48:16;8.03;;;3.07;;
18280;SDS011;9266;51.132;17.062;2024-03-29T13:50:43;3.03;;;2.13;;
18280;SDS011;9266;51.132;17.062;2024-03-29T13:53:10;2.40;;;1.60;;
18280;SDS011;9266;51.132;17.062;2024-03-29T13:55:38;2.93;;;1.97;;
18280;SDS011;9266;51.132;17.062;2024-03-29T13:58:06;4.90;;;2.40;;
18280;SDS011;9266;51.132;17.062;2024-03-29T14:00:33;4.23;;;2.40;;
18280;SDS011;9266;51.132;17.062;2024-03-29T14:05:47;6.17;;;2.63;;
18280;SDS011;9266;51.132;17.062;2024-03-29T14:08:14;4.53;;;2.00;;
18280;SDS011;9266;51.132;17.062;2024-03-29T14:10:42;4.60;;;2.07;;
18280;SDS011;9266;51.132;17.062;2024-03-29T14:13:09;2.03;;;1.57;;
18280;SDS011;9266;51.132;17.062;2024-03-29T14:15:38;2.77;;;1.80;;
18280;SDS011;9266;51.132;17.062;2024-03-29T14:18:05;6.07;;;2.43;;
18280;SDS011;9266;51.132;17.062;2024-03-29T14:20:33;4.80;;;2.30;;
18280;SDS011;9266;51.132;17.062;2024-03-29T14:23:00;3.83;;;2.30;;
18280;SDS011;9266;51.132;17.062;2024-03-29T14:25:31;4.30;;;2.10;;
18280;SDS011;9266;51.132;17.062;2024-03-29T14:27:59;3.33;;;1.80;;
18280;SDS011;9266;51.132;17.062;2024-03-29T14:30:28;3.40;;;1.40;;
18280;SDS011;9266;51.132;17.062;2024-03-29T14:32:55;6.03;;;1.67;;
18280;SDS011;9266;51.132;17.062;2024-03-29T14:35:27;4.83;;;2.47;;
18280;SDS011;9266;51.132;17.062;2024-03-29T14:37:57;5.20;;;1.93;;
18280;SDS011;9266;51.132;17.062;2024-03-29T14:43:11;3.00;;;1.60;;
18280;SDS011;9266;51.132;17.062;2024-03-29T14:45:39;2.23;;;1.60;;
18280;SDS011;9266;51.132;17.062;2024-03-29T14:48:07;3.73;;;1.63;;
18280;SDS011;9266;51.132;17.062;2024-03-29T14:50:34;4.40;;;1.80;;
18280;SDS011;9266;51.132;17.062;2024-03-29T14:53:03;5.97;;;2.63;;
18280;SDS011;9266;51.132;17.062;2024-03-29T14:55:30;6.50;;;2.20;;
18280;SDS011;9266;51.132;17.062;2024-03-29T14:57:57;4.23;;;2.57;;
18280;SDS011;9266;51.132;17.062;2024-03-29T15:00:25;3.43;;;2.07;;
18280;SDS011;9266;51.132;17.062;2024-03-29T15:02:52;2.13;;;1.77;;
18280;SDS011;9266;51.132;17.062;2024-03-29T15:05:19;3.30;;;1.40;;
18280;SDS011;9266;51.132;17.062;2024-03-29T15:07:47;3.60;;;1.53;;
18280;SDS011;9266;51.132;17.062;2024-03-29T15:10:15;5.43;;;2.20;;
18280;SDS011;9266;51.132;17.062;2024-03-29T15:12:44;4.23;;;2.00;;
18280;SDS011;9266;51.132;17.062;2024-03-29T15:15:11;2.53;;;1.70;;
18280;SDS011;9266;51.132;17.062;2024-03-29T15:17:39;5.20;;;1.60;;
18280;SDS011;9266;51.132;17.062;2024-03-29T15:20:06;2.27;;;1.50;;
18280;SDS011;9266;51.132;17.062;2024-03-29T15:22:34;1.87;;;1.50;;
18280;SDS011;9266;51.132;17.062;2024-03-29T15:25:02;4.23;;;1.90;;
18280;SDS011;9266;51.132;17.062;2024-03-29T15:27:30;2.77;;;1.40;;
18280;SDS011;9266;51.132;17.062;2024-03-29T15:30:12;3.07;;;1.60;;